Time;durP1;ratioP1;P1;durP2;ratioP2;P2;SDS_P1;SDS_P2;PMS_P1;PMS_P2;Temp;Humidity;BMP_temperature;BMP_pressure;BME280_temperature;BME280_humidity;BME280_pressure;Samples;Min_cycle;Max_cycle;Signal;HPM_P1;HPM_P2
2022/11/08 00:01:53;;;;;;;;;;;;;;;16.16;66.93;100886.44;4994596;28;20514;-45
2022/11/08 00:04:19;;;;;;;9.23;2.55;;;;;;;16.10;67.31;100880.41;4993869;28;19909;-43
2022/11/08 00:14:58;;;;;;;10.25;2.20;;;;;;;15.94;67.99;100873.50;4994156;28;20108;-42
2022/11/08 00:17:26;;;;;;;10.27;2.20;;;;;;;16.13;67.19;100872.47;4993555;28;20034;-42
2022/11/08 00:19:51;;;;;;;8.95;2.25;;;;;;;15.73;68.40;100875.44;4993926;28;20536;-43
2022/11/08 00:22:17;;;;;;;8.45;2.30;;;;;;;15.93;67.84;100864.75;4993618;28;20034;-44
2022/11/08 00:24:43;;;;;;;7.63;2.00;;;;;;;15.86;68.15;100867.47;4993701;28;20109;-44
2022/11/08 00:27:20;;;;;;;10.82;2.25;;;;;;;15.90;67.87;100867.41;4993428;28;20046;-44
2022/11/08 00:29:45;;;;;;;5.88;2.00;;;;;;;16.01;67.39;100862.94;4994245;28;20030;-45
2022/11/08 00:32:13;;;;;;;7.68;2.22;;;;;;;15.92;67.60;100873.50;4993485;28;20022;-43
2022/11/08 00:34:39;;;;;;;7.68;2.28;;;;;;;15.94;67.62;100870.88;4977086;28;20026;-44
2022/11/08 00:37:04;;;;;;;6.03;2.05;;;;;;;15.80;67.82;100863.97;4994007;28;20169;-44
2022/11/08 00:39:30;;;;;;;8.15;2.17;;;;;;;15.76;68.53;100858.75;4993145;28;20105;-44
2022/11/08 00:41:55;;;;;;;5.80;2.47;;;;;;;15.50;69.42;100858.03;4993566;28;20109;-43
2022/11/08 00:44:21;;;;;;;8.05;2.28;;;;;;;15.83;68.08;100863.97;4993285;28;20386;-43
2022/11/08 00:46:47;;;;;;;7.13;2.30;;;;;;;15.61;69.01;100857.16;4992805;28;20101;-43
2022/11/08 00:49:12;;;;;;;8.27;2.30;;;;;;;15.72;68.33;100865.81;4993273;28;20100;-43
2022/11/08 00:51:38;;;;;;;7.28;2.33;;;;;;;15.68;68.64;100855.31;4993181;28;20475;-43
2022/11/08 00:54:04;;;;;;;8.63;2.30;;;;;;;15.69;68.46;100852.69;4992240;28;20022;-43
2022/11/08 00:56:29;;;;;;;7.43;1.98;;;;;;;15.79;67.89;100841.22;4992656;28;20027;-44
2022/11/08 00:58:55;;;;;;;7.60;1.83;;;;;;;15.66;68.51;100842.22;4993224;28;20034;-46
2022/11/08 01:01:20;;;;;;;7.05;2.10;;;;;;;15.81;67.90;100844.69;4992590;28;20372;-44
2022/11/08 01:03:47;;;;;;;7.60;2.08;;;;;;;15.73;68.35;100843.03;4992799;28;20034;-43
2022/11/08 01:06:15;;;;;;;5.85;1.98;;;;;;;15.73;68.33;100843.03;4992793;28;20041;-43
2022/11/08 01:08:41;;;;;;;6.32;2.00;;;;;;;15.54;68.83;100837.03;4993009;28;20027;-44
2022/11/08 01:11:11;;;;;;;7.22;1.98;;;;;;;15.80;67.69;100832.44;4992375;28;20460;-43
2022/11/08 01:13:37;;;;;;;7.78;2.40;;;;;;;15.81;67.75;100828.91;4992882;28;20442;-43
2022/11/08 01:16:11;;;;;;;8.45;2.08;;;;;;;15.67;68.10;100822.94;4992702;28;20108;-42
2022/11/08 01:18:36;;;;;;;;;;;;;;;15.71;67.83;100821.13;4993436;28;20394;-43
2022/11/08 01:21:03;;;;;;;7.90;2.00;;;;;;;15.73;67.65;100814.13;4992699;28;19910;-45
2022/11/08 01:23:29;;;;;;;8.70;2.10;;;;;;;15.62;68.07;100816.81;4992694;28;20041;-42
2022/11/08 01:25:54;;;;;;;7.32;2.25;;;;;;;15.66;68.13;100810.66;4993841;28;20034;-43
2022/11/08 01:28:20;;;;;;;6.63;1.88;;;;;;;15.70;67.92;100812.38;4995035;28;20462;-45
2022/11/08 01:30:45;;;;;;;6.38;2.05;;;;;;;15.65;67.83;100806.28;4993188;28;20057;-39
2022/11/08 01:33:11;;;;;;;9.70;2.00;;;;;;;15.71;67.69;100797.47;4992354;28;20030;-39
2022/11/08 01:35:37;;;;;;;8.43;2.30;;;;;;;15.46;68.21;100796.78;4975165;28;20457;-46
2022/11/08 01:38:04;;;;;;;7.20;2.15;;;;;;;15.68;67.89;100789.59;4992085;28;20034;-42
2022/11/08 01:40:30;;;;;;;6.80;1.85;;;;;;;15.73;67.30;100798.34;4992106;28;20030;-42
2022/11/08 01:42:56;;;;;;;6.00;1.75;;;;;;;15.89;66.60;100794.69;4992390;28;20474;-43
2022/11/08 01:45:59;;;;;;;8.07;2.38;;;;;;;15.83;66.57;100774.59;4993747;28;20026;-42
2022/11/08 01:48:26;;;;;;;9.35;1.98;;;;;;;15.85;66.57;100771.94;4995135;28;20022;-44
2022/11/08 01:50:58;;;;;;;9.43;2.30;;;;;;;15.83;66.33;100778.97;4994458;28;20550;-42
2022/11/08 01:53:24;;;;;;;5.60;1.95;;;;;;;15.85;66.25;100769.31;4993796;28;20030;-42
2022/11/08 01:55:50;;;;;;;4.72;1.73;;;;;;;15.73;66.57;100772.06;4993005;28;20109;-45
2022/11/08 01:58:19;;;;;;;5.75;1.65;;;;;;;15.87;66.00;100764.91;4975063;28;20456;-45
2022/11/08 02:00:45;;;;;;;6.65;1.88;;;;;;;15.54;66.89;100767.84;4991811;28;20034;-41
2022/11/08 02:03:15;;;;;;;7.60;2.30;;;;;;;15.69;66.27;100765.94;4991929;28;20033;-43
2022/11/08 02:05:40;;;;;;;9.07;2.05;;;;;;;15.65;66.31;100764.25;4991711;28;20084;-42
2022/11/08 02:08:13;;;;;;;7.18;2.13;;;;;;;15.75;65.78;100770.28;4994897;28;20030;-44
2022/11/08 02:10:41;;;;;;;8.63;2.13;;;;;;;15.78;65.55;100765.00;4994594;28;20037;-42
2022/11/08 02:13:11;;;;;;;7.72;2.65;;;;;;;15.67;65.66;100759.84;4995499;28;20033;-43
2022/11/08 02:15:36;;;;;;;7.22;2.10;;;;;;;15.61;66.19;100762.53;4993539;28;20045;-42
2022/11/08 02:18:02;;;;;;;6.78;2.30;;;;;;;15.50;66.65;100759.06;4994149;28;20458;-42
2022/11/08 02:20:27;;;;;;;5.00;2.00;;;;;;;15.53;66.72;100747.72;4994415;28;20030;-43
2022/11/08 02:23:19;;;;;;;5.38;2.10;;;;;;;15.51;66.47;100749.44;4994363;28;20069;-41
2022/11/08 02:25:44;;;;;;;5.97;2.15;;;;;;;15.50;66.28;100745.06;4993011;28;20030;-42
2022/11/08 02:28:09;;;;;;;8.35;2.10;;;;;;;15.22;67.39;100745.31;4994403;28;20025;-44
2022/11/08 02:30:36;;;;;;;6.57;2.35;;;;;;;15.31;67.29;100739.09;4993929;28;20150;-43
2022/11/08 02:33:20;;;;;;;6.60;2.20;;;;;;;15.13;67.74;100734.84;4993154;28;20434;-42
2022/11/08 02:35:50;;;;;;;4.78;2.05;;;;;;;14.94;68.97;100730.66;4977489;28;20056;-43
2022/11/08 02:38:17;;;;;;;6.00;2.20;;;;;;;15.22;68.02;100736.56;4976843;28;20032;-44
2022/11/08 02:40:51;;;;;;;9.00;2.17;;;;;;;15.08;67.71;100734.03;4994419;28;20041;-42
2022/11/08 02:43:16;;;;;;;7.88;2.42;;;;;;;15.17;67.94;100725.22;4994630;28;20216;-40
2022/11/08 02:45:42;;;;;;;6.15;2.33;;;;;;;14.99;68.55;100713.97;4994748;28;20092;-43
2022/11/08 02:48:07;;;;;;;6.60;2.30;;;;;;;14.98;68.52;100711.34;4992905;28;20025;-42
2022/11/08 02:50:33;;;;;;;11.52;2.53;;;;;;;14.82;69.30;100710.56;4992567;28;20347;-41
2022/11/08 02:52:58;;;;;;;7.13;2.40;;;;;;;15.11;68.12;100707.75;4991300;28;20023;-42
2022/11/08 02:55:24;;;;;;;7.30;2.67;;;;;;;15.02;68.50;100703.44;4991353;28;20069;-43
2022/11/08 02:57:49;;;;;;;8.82;2.55;;;;;;;14.89;69.14;100693.03;4991565;28;20050;-43
2022/11/08 03:00:15;;;;;;;7.43;2.50;;;;;;;14.83;69.27;100685.19;4992050;28;20196;-45
2022/11/08 03:02:40;;;;;;;7.78;2.40;;;;;;;14.92;68.63;100691.28;4991116;28;20030;-46
2022/11/08 03:05:06;;;;;;;9.85;2.78;;;;;;;14.77;69.08;100667.75;4992256;28;20078;-43
2022/11/08 03:07:31;;;;;;;7.07;2.47;;;;;;;14.63;69.90;100669.59;4992104;28;20030;-43
2022/11/08 03:09:56;;;;;;;7.43;2.55;;;;;;;14.79;69.66;100663.38;4992198;28;20096;-42
2022/11/08 03:12:22;;;;;;;5.90;2.30;;;;;;;14.59;70.07;100662.63;4992427;28;20030;-42
2022/11/08 03:14:47;;;;;;;8.38;2.30;;;;;;;14.85;69.27;100651.94;4991950;28;20475;-43
2022/11/08 03:17:13;;;;;;;5.45;2.58;;;;;;;14.78;69.33;100650.25;5007302;23;20042;-45
2022/11/08 03:19:38;;;;;;;8.23;2.30;;;;;;;14.93;68.67;100648.41;4994247;28;20030;-46
2022/11/08 03:22:03;;;;;;;5.22;2.40;;;;;;;14.87;69.08;100650.19;4993708;28;20037;-46
2022/11/08 03:24:29;;;;;;;6.15;2.50;;;;;;;14.86;69.32;100645.81;4994098;28;20026;-46
2022/11/08 03:26:54;;;;;;;7.22;2.47;;;;;;;14.83;69.34;100644.06;4994088;28;20410;-45
2022/11/08 03:29:19;;;;;;;6.55;2.50;;;;;;;14.88;68.99;100625.69;4993940;28;20038;-45
2022/11/08 03:31:45;;;;;;;7.13;2.28;;;;;;;14.82;69.30;100625.75;4993823;28;20022;-47
2022/11/08 03:34:10;;;;;;;8.85;2.40;;;;;;;14.70;69.60;100612.72;4994108;28;20394;-44
2022/11/08 03:36:35;;;;;;;5.55;2.00;;;;;;;14.83;68.87;100602.09;4993952;28;20030;-45
2022/11/08 03:39:00;;;;;;;4.50;2.40;;;;;;;14.99;68.38;100608.97;4993998;28;20118;-48
2022/11/08 03:41:26;;;;;;;8.50;2.45;;;;;;;14.93;68.62;100605.53;4993606;28;20030;-45
2022/11/08 03:43:51;;;;;;;5.47;2.00;;;;;;;15.01;68.14;100609.81;4993959;28;20443;-44
2022/11/08 03:46:17;;;;;;;5.88;2.00;;;;;;;14.94;68.29;100612.53;4993761;28;20602;-46
2022/11/08 03:48:42;;;;;;;5.15;2.00;;;;;;;14.92;68.10;100604.66;4993746;28;20073;-45
2022/11/08 03:51:07;;;;;;;5.88;2.00;;;;;;;14.69;69.58;100600.47;4993579;28;20042;-45
2022/11/08 03:53:33;;;;;;;5.05;1.98;;;;;;;14.75;69.05;100592.56;4993708;28;20517;-45
2022/11/08 03:55:59;;;;;;;6.55;2.10;;;;;;;14.83;68.73;100590.72;4993610;28;20027;-44
2022/11/08 03:58:24;;;;;;;6.68;2.30;;;;;;;14.79;68.87;100594.25;4994016;28;20459;-44
2022/11/08 04:00:49;;;;;;;6.47;2.30;;;;;;;14.70;68.89;100594.34;4993932;28;20111;-46
2022/11/08 04:03:15;;;;;;;7.50;2.38;;;;;;;14.78;68.34;100598.63;4976233;28;20026;-44
2022/11/08 04:05:40;;;;;;;5.28;2.30;;;;;;;14.87;68.06;100585.44;4975866;28;20029;-44
2022/11/08 04:08:05;;;;;;;5.10;2.35;;;;;;;14.66;68.79;100587.38;4993620;28;20022;-44
2022/11/08 04:10:31;;;;;;;6.13;2.22;;;;;;;14.83;68.59;100588.97;4993347;28;20069;-44
2022/11/08 04:15:46;;;;;;;5.88;2.22;;;;;;;14.89;67.85;100588.03;4993712;28;20085;-44
2022/11/08 04:23:44;;;;;;;5.05;2.20;;;;;;;14.69;68.62;100575.09;4993531;28;20085;-44
2022/11/08 04:26:13;;;;;;;6.78;2.60;;;;;;;14.70;68.57;100575.97;4993153;28;20034;-45
2022/11/08 04:28:40;;;;;;;6.30;2.20;;;;;;;14.70;68.19;100568.94;4991938;28;20096;-43
2022/11/08 04:31:09;;;;;;;7.35;2.38;;;;;;;14.70;68.01;100563.69;4993134;28;20058;-41
2022/11/08 04:33:35;;;;;;;6.00;2.13;;;;;;;14.85;67.24;100555.72;4993335;28;20026;-43
2022/11/08 04:36:05;;;;;;;6.60;2.17;;;;;;;14.82;67.27;100547.00;4993215;28;20391;-43
2022/11/08 04:38:31;;;;;;;5.70;2.30;;;;;;;14.71;67.55;100547.09;4993533;28;20026;-45
2022/11/08 04:41:05;;;;;;;4.68;2.10;;;;;;;14.67;67.87;100542.75;4992919;28;20462;-46
2022/11/08 04:43:32;;;;;;;5.32;2.30;;;;;;;14.64;68.08;100541.91;4993430;28;20043;-44
2022/11/08 04:46:02;;;;;;;6.53;2.20;;;;;;;14.57;67.83;100535.84;4993286;28;20252;-45
2022/11/08 04:48:28;;;;;;;4.55;2.30;;;;;;;14.72;67.59;100537.47;4993959;28;20037;-43
2022/11/08 04:50:53;;;;;;;6.25;2.10;;;;;;;14.72;67.15;100537.47;4993498;28;20034;-44
2022/11/08 04:53:19;;;;;;;8.63;2.40;;;;;;;14.73;67.21;100536.59;4994298;28;20038;-44
2022/11/08 04:55:44;;;;;;;8.95;2.03;;;;;;;14.77;66.83;100527.78;4993857;28;20483;-44
2022/11/08 04:58:10;;;;;;;4.63;2.10;;;;;;;14.84;66.62;100526.84;4993640;28;20037;-47
2022/11/08 05:00:35;;;;;;;4.95;2.30;;;;;;;14.94;66.16;100521.50;4992260;28;20053;-43
2022/11/08 05:03:01;;;;;;;5.57;2.33;;;;;;;14.84;66.64;100514.59;4993053;28;20443;-43
2022/11/08 05:05:27;;;;;;;7.65;2.25;;;;;;;14.76;66.44;100512.94;4992922;28;20033;-46
2022/11/08 05:07:53;;;;;;;5.05;2.20;;;;;;;14.90;66.35;100509.28;4992576;28;20378;-45
2022/11/08 05:10:18;;;;;;;4.28;2.08;;;;;;;14.87;66.06;100503.22;4992181;28;20026;-45
2022/11/08 05:12:44;;;;;;;5.65;2.20;;;;;;;14.79;65.92;100497.16;4992400;28;20030;-46
2022/11/08 05:15:09;;;;;;;6.38;2.05;;;;;;;14.99;65.63;100493.47;4991159;28;20033;-43
2022/11/08 05:17:35;;;;;;;3.67;2.00;;;;;;;15.01;65.38;100496.03;4992642;28;20037;-47
2022/11/08 05:25:28;;;;;;;6.63;2.08;;;;;;;14.90;65.33;100488.28;4992297;28;20097;-46
2022/11/08 05:27:53;;;;;;;4.28;1.90;;;;;;;14.88;65.28;100494.47;4992377;28;20139;-45
2022/11/08 05:30:19;;;;;;;4.85;1.90;;;;;;;15.08;64.49;100491.59;4991976;28;20027;-44
2022/11/08 05:32:44;;;;;;;5.28;2.10;;;;;;;14.90;64.17;100484.78;4992073;28;20503;-44
2022/11/08 05:35:09;;;;;;;4.90;2.20;;;;;;;15.03;64.67;100478.53;4992577;28;20418;-46
2022/11/08 05:37:35;;;;;;;6.07;2.20;;;;;;;15.00;64.66;100489.09;4992122;28;20137;-43
2022/11/08 05:40:00;;;;;;;5.55;2.20;;;;;;;15.09;64.16;100483.72;4992177;28;20030;-43
2022/11/08 05:42:25;;;;;;;7.75;2.15;;;;;;;15.09;64.08;100480.22;4992770;28;20509;-45
2022/11/08 05:44:51;;;;;;;4.47;2.00;;;;;;;14.91;64.71;100469.03;4995026;28;20576;-46
2022/11/08 05:47:16;;;;;;;4.45;2.08;;;;;;;14.87;64.26;100475.22;4992468;28;20026;-42
2022/11/08 05:49:42;;;;;;;4.78;2.10;;;;;;;14.94;64.72;100471.63;4991941;28;20117;-46
2022/11/08 05:52:07;;;;;;;6.93;2.10;;;;;;;15.00;64.34;100457.59;4991413;28;20026;-44
2022/11/08 05:54:32;;;;;;;6.43;2.10;;;;;;;14.88;64.09;100463.81;4991600;28;20085;-46
2022/11/08 05:56:57;;;;;;;5.47;2.13;;;;;;;15.00;64.05;100455.78;4991389;28;20046;-42
2022/11/08 05:59:23;;;;;;;4.65;2.10;;;;;;;15.05;63.57;100461.03;4991860;28;20494;-44
2022/11/08 06:01:48;;;;;;;5.18;2.03;;;;;;;15.07;63.43;100467.09;4991332;28;20096;-44
2022/11/08 06:04:13;;;;;;;5.07;2.00;;;;;;;15.09;63.34;100461.84;4991527;28;20568;-44
2022/11/08 06:06:39;;;;;;;6.85;2.10;;;;;;;15.14;63.15;100449.53;4991379;28;20448;-44
2022/11/08 06:09:04;;;;;;;4.07;1.90;;;;;;;15.07;63.22;100442.59;4991357;28;20539;-46
2022/11/08 06:11:29;;;;;;;3.92;1.77;;;;;;;15.04;63.09;100438.28;4991267;28;20034;-45
2022/11/08 06:13:55;;;;;;;4.80;2.03;;;;;;;14.99;63.49;100440.09;4991306;28;20142;-44
2022/11/08 06:16:21;;;;;;;6.40;2.20;;;;;;;15.02;62.88;100438.28;4991366;28;20066;-46
2022/11/08 06:18:48;;;;;;;9.23;2.30;;;;;;;14.94;63.50;100455.03;4991724;28;20037;-48
2022/11/08 06:21:16;;;;;;;5.53;2.15;;;;;;;15.05;63.37;100442.66;4991473;28;20069;-46
2022/11/08 06:23:41;;;;;;;5.00;2.17;;;;;;;14.99;63.36;100446.22;4991121;28;20057;-46
2022/11/08 06:26:07;;;;;;;5.05;1.98;;;;;;;15.01;63.07;100457.53;4991297;28;20122;-43
2022/11/08 06:28:34;;;;;;;3.88;1.90;;;;;;;14.83;63.94;100451.63;4991246;28;20475;-43
2022/11/08 06:31:01;;;;;;;6.30;2.30;;;;;;;14.82;63.51;100448.13;4990567;28;20054;-46
2022/11/08 06:33:27;;;;;;;4.53;1.88;;;;;;;15.06;62.59;100441.75;4991013;28;20109;-44
2022/11/08 06:35:53;;;;;;;7.30;1.90;;;;;;;14.97;62.61;100445.34;4990772;28;20114;-44
2022/11/08 06:38:18;;;;;;;5.35;2.05;;;;;;;14.86;62.81;100436.72;4990692;28;20461;-47
2022/11/08 06:40:44;;;;;;;6.47;1.95;;;;;;;15.01;62.68;100444.41;4973464;28;20082;-45
2022/11/08 06:43:10;;;;;;;6.93;1.95;;;;;;;14.93;62.88;100441.03;4990940;28;20391;-44
2022/11/08 06:45:36;;;;;;;5.45;1.95;;;;;;;14.92;62.44;100446.28;4989708;28;20422;-44
2022/11/08 06:48:03;;;;;;;5.13;1.77;;;;;;;15.18;61.99;100446.88;4991587;28;20022;-45
2022/11/08 06:50:31;;;;;;;3.75;1.83;;;;;;;14.97;62.11;100458.47;4990756;28;20038;-46
2022/11/08 06:52:58;;;;;;;4.50;2.17;;;;;;;14.83;62.40;100452.50;4990611;28;20439;-47
2022/11/08 06:55:23;;;;;;;4.68;2.03;;;;;;;15.05;61.30;100441.78;4991262;28;20022;-46
2022/11/08 06:57:48;;;;;;;5.10;1.98;;;;;;;15.00;61.81;100441.84;4990989;28;20152;-45
2022/11/08 07:00:15;;;;;;;5.38;1.90;;;;;;;14.97;61.58;100416.47;4991840;28;20027;-45
2022/11/08 07:02:40;;;;;;;5.35;2.22;;;;;;;15.31;60.64;100426.53;4991030;28;20022;-45
2022/11/08 07:05:06;;;;;;;3.58;1.90;;;;;;;15.00;61.31;100441.84;4991135;28;20069;-45
2022/11/08 07:07:31;;;;;;;5.80;2.00;;;;;;;14.98;60.75;100427.84;4991345;28;20023;-46
2022/11/08 07:09:57;;;;;;;5.03;2.17;;;;;;;15.13;60.79;100437.28;4991199;28;20049;-43
2022/11/08 07:12:22;;;;;;;5.78;2.05;;;;;;;15.01;61.10;100435.66;4992414;28;20057;-45
2022/11/08 07:14:47;;;;;;;8.50;2.00;;;;;;;15.30;60.39;100435.34;4993559;28;20121;-43
2022/11/08 07:17:14;;;;;;;6.78;2.25;;;;;;;15.18;60.72;100444.25;4992228;28;20032;-44
2022/11/08 07:19:40;;;;;;;4.32;2.10;;;;;;;15.35;60.00;100449.28;4992950;28;20037;-43
2022/11/08 07:22:05;;;;;;;5.88;2.00;;;;;;;15.25;60.42;100445.00;4994412;28;20022;-43
2022/11/08 07:24:30;;;;;;;7.10;2.25;;;;;;;15.48;59.81;100440.34;4978205;28;20073;-44
2022/11/08 07:26:56;;;;;;;4.95;2.10;;;;;;;15.28;60.16;100435.34;4994649;28;20033;-47
2022/11/08 07:29:21;;;;;;;4.15;2.00;;;;;;;15.32;60.53;100436.16;4994886;28;20391;-45
2022/11/08 07:31:46;;;;;;;5.72;2.22;;;;;;;15.35;60.04;100431.75;4994470;28;20018;-47
2022/11/08 07:34:12;;;;;;;5.55;2.20;;;;;;;15.55;59.67;100441.16;4992747;28;20030;-47
2022/11/08 07:36:37;;;;;;;4.82;2.38;;;;;;;15.52;59.76;100446.41;4995067;28;20569;-42
2022/11/08 07:39:02;;;;;;;8.05;2.25;;;;;;;15.65;59.43;100445.41;4994721;28;20045;-45
2022/11/08 07:41:28;;;;;;;5.90;2.05;;;;;;;15.41;59.74;100447.44;4993666;28;20061;-46
2022/11/08 07:43:53;;;;;;;6.63;2.50;;;;;;;15.57;59.08;100452.50;4990332;28;20405;-44
2022/11/08 07:46:18;;;;;;;9.95;2.22;;;;;;;15.66;58.86;100450.63;4990224;28;20030;-47
2022/11/08 07:48:43;;;;;;;4.68;2.13;;;;;;;15.39;59.77;100443.06;4990273;28;20446;-43
2022/11/08 07:51:09;;;;;;;6.07;2.10;;;;;;;15.90;58.49;100440.66;4990003;28;20022;-46
2022/11/08 07:53:34;;;;;;;8.93;2.53;;;;;;;15.60;59.00;100440.22;4990266;28;20053;-43
2022/11/08 07:55:59;;;;;;;5.40;2.40;;;;;;;15.61;58.76;100449.84;4990293;28;20030;-47
2022/11/08 07:58:25;;;;;;;6.43;2.35;;;;;;;15.80;58.53;100438.13;4989980;28;20026;-45
2022/11/08 08:00:50;;;;;;;6.22;2.45;;;;;;;15.79;58.62;100439.06;4989723;28;20026;-46
2022/11/08 08:03:16;;;;;;;7.95;2.38;;;;;;;15.83;58.28;100439.88;4991583;28;20072;-44
2022/11/08 08:05:43;;;;;;;6.40;2.53;;;;;;;15.89;58.24;100441.53;4993919;28;20077;-49
2022/11/08 08:08:11;;;;;;;5.85;2.40;;;;;;;16.10;57.69;100451.72;4993600;28;20037;-44
2022/11/08 08:10:37;;;;;;;7.75;2.28;;;;;;;16.12;57.47;100457.81;4993680;28;20026;-49
2022/11/08 08:13:03;;;;;;;5.45;2.30;;;;;;;15.91;58.05;100463.41;4994677;28;20097;-49
2022/11/08 08:15:29;;;;;;;6.75;2.20;;;;;;;16.15;57.49;100456.03;4993944;28;20113;-46
2022/11/08 08:17:54;;;;;;;5.85;2.40;;;;;;;15.70;57.68;100447.06;4993584;28;20483;-45
2022/11/08 08:20:20;;;;;;;6.13;2.50;;;;;;;16.12;57.28;100456.06;4993243;28;20030;-44
2022/11/08 08:22:46;;;;;;;4.82;2.28;;;;;;;16.26;56.67;100457.59;4975748;28;20030;-45
2022/11/08 08:25:12;;;;;;;6.00;2.50;;;;;;;16.18;56.63;100447.19;4993114;28;20509;-46
2022/11/08 08:27:37;;;;;;;5.90;2.50;;;;;;;16.00;57.25;100450.13;4993017;28;20034;-46
2022/11/08 08:30:05;;;;;;;4.90;2.50;;;;;;;16.35;56.43;100436.38;4975752;28;20022;-46
2022/11/08 08:32:31;;;;;;;6.45;2.42;;;;;;;16.18;56.64;100448.06;4975308;28;20068;-45
2022/11/08 08:34:56;;;;;;;5.72;2.60;;;;;;;16.51;55.70;100436.13;4992927;28;20364;-45
2022/11/08 08:37:22;;;;;;;11.95;2.40;;;;;;;16.30;56.03;100425.94;4993127;28;20033;-47
2022/11/08 08:39:47;;;;;;;4.05;2.40;;;;;;;16.31;56.19;100429.44;4992920;28;20038;-44
2022/11/08 08:42:12;;;;;;;4.82;2.10;;;;;;;16.36;55.92;100436.38;4993096;28;20042;-47
2022/11/08 08:44:38;;;;;;;4.38;2.28;;;;;;;16.51;56.17;100430.84;4992826;28;20025;-44
2022/11/08 08:47:03;;;;;;;4.28;2.15;;;;;;;16.34;55.75;100432.03;4992700;28;20026;-47
2022/11/08 08:49:28;;;;;;;5.63;2.33;;;;;;;16.52;55.27;100440.50;4992784;28;20068;-46
2022/11/08 08:51:54;;;;;;;7.35;2.30;;;;;;;16.80;54.98;100437.38;4992589;28;20022;-45
2022/11/08 08:54:19;;;;;;;5.10;2.20;;;;;;;16.50;55.44;100426.47;4992697;28;20394;-43
2022/11/08 08:56:44;;;;;;;6.10;2.10;;;;;;;16.52;55.55;100424.69;4992625;28;20045;-46
2022/11/08 08:59:10;;;;;;;6.53;2.40;;;;;;;16.57;55.68;100430.75;4992885;28;20031;-44
2022/11/08 09:01:35;;;;;;;7.72;2.30;;;;;;;16.81;54.80;100421.56;4992346;28;20049;-46
2022/11/08 09:04:00;;;;;;;7.10;2.33;;;;;;;16.79;55.29;100427.72;4992442;28;20105;-47
2022/11/08 09:06:26;;;;;;;11.20;2.50;;;;;;;16.84;55.06;100434.63;4992413;28;20033;-45
2022/11/08 09:08:51;;;;;;;8.25;2.42;;;;;;;16.83;54.88;100440.78;4992759;28;20517;-43
2022/11/08 09:11:16;;;;;;;10.30;2.70;;;;;;;16.83;55.04;100451.34;4992479;28;20018;-43
2022/11/08 09:13:41;;;;;;;9.32;2.38;;;;;;;16.72;55.62;100453.28;4992433;28;20022;-43
2022/11/08 09:16:09;;;;;;;6.35;2.60;;;;;;;16.97;55.13;100448.44;4991547;28;20602;-47
2022/11/08 09:18:35;;;;;;;7.60;2.58;;;;;;;16.97;55.07;100445.81;5029124;23;20042;-45
2022/11/08 09:21:03;;;;;;;8.13;2.33;;;;;;;17.15;54.53;100447.22;5011432;28;20107;-47
2022/11/08 09:23:28;;;;;;;7.47;2.58;;;;;;;17.04;55.21;100445.66;5011672;28;20148;-44
2022/11/08 09:26:01;;;;;;;7.80;2.50;;;;;;;16.98;54.96;100447.56;5011528;28;20130;-48
2022/11/08 09:28:29;;;;;;;5.57;2.53;;;;;;;16.69;55.63;100445.47;5011467;28;20014;-48
2022/11/08 09:30:57;;;;;;;6.35;2.80;;;;;;;16.77;55.64;100443.53;5011935;28;20026;-44
2022/11/08 09:33:24;;;;;;;6.13;2.40;;;;;;;17.04;54.92;100445.66;5012502;28;20418;-43
2022/11/08 09:35:52;;;;;;;6.10;2.83;;;;;;;17.09;55.11;100431.53;5012165;28;20026;-44
2022/11/08 09:38:18;;;;;;;4.88;2.40;;;;;;;17.11;55.01;100390.22;5011535;28;20104;-50
2022/11/08 09:40:58;;;;;;;9.30;2.70;;;;;;;17.01;54.81;100421.16;5011599;28;20850;-44
2022/11/08 09:43:47;;;;;;;7.43;2.42;;;;;;;17.30;54.77;100428.47;5011921;28;20157;-48
2022/11/08 09:46:27;;;;;;;5.88;2.47;;;;;;;16.92;55.16;100423.97;5012379;28;20018;-50
2022/11/08 09:48:53;;;;;;;5.40;2.40;;;;;;;16.99;54.91;100421.19;5012351;28;20030;-43
2022/11/08 09:51:22;;;;;;;6.07;2.40;;;;;;;17.37;54.51;100416.91;5011790;28;20478;-46
2022/11/08 09:53:52;;;;;;;6.00;2.42;;;;;;;17.26;54.77;100422.38;5011031;28;20148;-44
2022/11/08 09:56:22;;;;;;;7.18;2.50;;;;;;;17.50;54.04;100428.03;5011827;28;20022;-47
2022/11/08 09:59:00;;;;;;;4.97;2.50;;;;;;;17.21;54.38;100418.09;5013018;28;20029;-48
2022/11/08 10:01:29;;;;;;;6.75;2.53;;;;;;;17.63;53.71;100424.25;5013684;28;20030;-48
2022/11/08 10:03:58;;;;;;;7.68;2.78;;;;;;;17.54;53.75;100420.03;5011793;28;20025;-46
2022/11/08 10:06:33;;;;;;;7.07;2.42;;;;;;;17.64;54.29;100425.97;5010837;28;20038;-46
2022/11/08 10:09:20;;;;;;;5.88;2.70;;;;;;;17.68;53.64;100417.13;5010794;28;20030;-47
2022/11/08 10:12:13;;;;;;;5.90;2.55;;;;;;;17.73;54.08;100415.25;5010355;28;20490;-43
2022/11/08 10:14:59;;;;;;;7.25;2.45;;;;;;;18.08;52.74;100423.19;5010574;28;20037;-45
2022/11/08 10:17:39;;;;;;;6.57;2.58;;;;;;;17.87;53.50;100428.09;5010550;28;20036;-45
2022/11/08 10:20:24;;;;;;;7.68;2.30;;;;;;;17.96;53.09;100438.44;5010844;28;20133;-43
2022/11/08 10:22:52;;;;;;;5.50;2.20;;;;;;;17.76;53.33;100429.22;5010636;28;20030;-43
2022/11/08 10:25:37;;;;;;;5.35;2.30;;;;;;;17.91;52.79;100432.41;5010369;28;20398;-48
2022/11/08 10:28:04;;;;;;;7.97;2.40;;;;;;;17.85;53.17;100438.69;5009909;28;20029;-44
2022/11/08 10:30:35;;;;;;;7.68;2.20;;;;;;;18.01;52.40;100436.53;5010524;28;20041;-45
2022/11/08 10:33:01;;;;;;;7.00;2.40;;;;;;;18.07;52.63;100433.75;5010764;28;20029;-44
2022/11/08 10:35:33;;;;;;;4.13;2.03;;;;;;;18.01;52.66;100441.81;5010061;28;20390;-44
2022/11/08 10:38:00;;;;;;;9.45;2.30;;;;;;;17.40;54.30;100444.03;5010270;28;20402;-45
2022/11/08 10:40:41;;;;;;;6.75;2.22;;;;;;;17.75;53.33;100445.91;5010035;28;20101;-43
2022/11/08 10:43:16;;;;;;;4.95;2.10;;;;;;;17.91;53.55;100440.31;5010773;28;20034;-45
2022/11/08 10:45:41;;;;;;;5.22;2.30;;;;;;;17.77;53.51;100446.75;5010822;28;20033;-45
2022/11/08 10:48:10;;;;;;;8.65;2.30;;;;;;;17.44;53.51;100439.59;5011964;28;20390;-43
2022/11/08 10:50:43;;;;;;;5.78;2.13;;;;;;;18.02;53.10;100435.63;5010259;28;20040;-47
2022/11/08 10:53:30;;;;;;;3.50;2.03;;;;;;;17.64;54.08;100437.41;5010776;28;20033;-43
2022/11/08 10:56:02;;;;;;;5.63;2.17;;;;;;;17.39;54.23;100441.44;5011119;28;20033;-45
2022/11/08 10:58:36;;;;;;;5.43;2.40;;;;;;;17.78;54.29;100443.22;5011651;28;20018;-44
2022/11/08 11:01:22;;;;;;;4.82;2.30;;;;;;;17.94;53.59;100434.94;5012671;28;20025;-43
2022/11/08 11:03:49;;;;;;;5.55;2.20;;;;;;;18.02;53.47;100427.72;5011674;28;20430;-46
2022/11/08 11:06:29;;;;;;;5.28;2.33;;;;;;;18.05;52.99;100435.59;5011109;28;20390;-52
2022/11/08 11:09:18;;;;;;;5.50;2.50;;;;;;;18.11;53.16;100433.63;5010170;28;20056;-44
2022/11/08 11:11:44;;;;;;;7.90;2.50;;;;;;;17.90;53.80;100435.94;5010206;28;20030;-48
2022/11/08 11:14:18;;;;;;;7.10;2.38;;;;;;;17.83;53.33;100425.53;5010097;28;20026;-48
2022/11/08 11:17:10;;;;;;;5.90;2.10;;;;;;;18.00;53.84;100432.16;5009701;28;20033;-45
2022/11/08 11:19:35;;;;;;;5.82;2.40;;;;;;;17.76;54.14;100420.44;5001426;28;20486;-44
2022/11/08 11:22:04;;;;;;;4.10;2.40;;;;;;;17.64;54.12;100418.06;5009925;28;20049;-48
2022/11/08 11:24:30;;;;;;;5.68;2.50;;;;;;;17.77;54.31;100428.31;5010338;28;20018;-49
2022/11/08 11:26:55;;;;;;;7.03;2.20;;;;;;;17.82;54.19;100423.78;5009787;28;20029;-44
2022/11/08 11:29:37;;;;;;;9.10;2.38;;;;;;;17.85;54.31;100428.13;5009980;28;20402;-45
2022/11/08 11:32:32;;;;;;;4.22;2.35;;;;;;;18.13;53.81;100428.31;4992344;28;20470;-47
2022/11/08 11:35:00;;;;;;;8.05;2.33;;;;;;;18.35;53.63;100433.97;5010137;28;20021;-46
2022/11/08 11:37:44;;;;;;;6.00;2.80;;;;;;;17.88;54.32;100430.69;5010438;28;20038;-45
2022/11/08 11:40:25;;;;;;;6.95;2.42;;;;;;;18.03;54.31;100422.44;5014236;28;20385;-55
2022/11/08 11:43:06;;;;;;;9.35;3.00;;;;;;;18.03;53.93;100425.06;5014099;28;20021;-47
2022/11/08 11:45:41;;;;;;;8.63;2.40;;;;;;;17.85;54.35;100420.22;5013644;28;20025;-47
2022/11/08 11:48:28;;;;;;;6.45;2.42;;;;;;;17.87;54.86;100428.09;5013662;28;20049;-50
2022/11/08 11:50:54;;;;;;;5.45;2.50;;;;;;;18.30;53.87;100422.66;5013225;28;20056;-47